sensor_id;sensor_type;location;lat;lon;timestamp;temperature;humidity
2106;DHT22;1059;52.548;13.408;2023-02-01T00:00:30;4.70;99.90
2106;DHT22;1059;52.548;13.408;2023-02-01T00:02:58;4.80;99.90
2106;DHT22;1059;52.548;13.408;2023-02-01T00:05:25;4.80;99.90
2106;DHT22;1059;52.548;13.408;2023-02-01T00:07:52;4.70;99.90
2106;DHT22;1059;52.548;13.408;2023-02-01T00:10:19;4.60;99.90
2106;DHT22;1059;52.548;13.408;2023-02-01T00:12:46;4.50;99.90
2106;DHT22;1059;52.548;13.408;2023-02-01T00:15:12;4.40;99.90
2106;DHT22;1059;52.548;13.408;2023-02-01T00:17:41;4.40;99.90
2106;DHT22;1059;52.548;13.408;2023-02-01T00:20:09;4.30;99.90
2106;DHT22;1059;52.548;13.408;2023-02-01T00:22:36;4.30;99.90
2106;DHT22;1059;52.548;13.408;2023-02-01T00:25:04;4.40;99.90
2106;DHT22;1059;52.548;13.408;2023-02-01T00:27:30;4.40;99.90
2106;DHT22;1059;52.548;13.408;2023-02-01T00:29:57;4.40;99.90
2106;DHT22;1059;52.548;13.408;2023-02-01T00:32:24;4.50;99.90
2106;DHT22;1059;52.548;13.408;2023-02-01T00:34:52;4.50;99.90
2106;DHT22;1059;52.548;13.408;2023-02-01T00:37:19;4.50;99.90
2106;DHT22;1059;52.548;13.408;2023-02-01T00:39:47;4.60;99.90
2106;DHT22;1059;52.548;13.408;2023-02-01T00:42:15;4.70;99.90
2106;DHT22;1059;52.548;13.408;2023-02-01T00:44:42;4.70;99.90
2106;DHT22;1059;52.548;13.408;2023-02-01T00:47:08;4.70;99.90
2106;DHT22;1059;52.548;13.408;2023-02-01T00:49:35;4.70;99.90
2106;DHT22;1059;52.548;13.408;2023-02-01T00:52:04;4.80;99.90
2106;DHT22;1059;52.548;13.408;2023-02-01T00:54:30;4.80;99.90
2106;DHT22;1059;52.548;13.408;2023-02-01T00:56:58;4.80;99.90
2106;DHT22;1059;52.548;13.408;2023-02-01T00:59:24;4.80;99.90
2106;DHT22;1059;52.548;13.408;2023-02-01T01:01:51;4.80;99.90
2106;DHT22;1059;52.548;13.408;2023-02-01T01:04:18;4.80;99.90
2106;DHT22;1059;52.548;13.408;2023-02-01T01:06:45;4.80;99.90
2106;DHT22;1059;52.548;13.408;2023-02-01T01:09:13;4.80;99.90
2106;DHT22;1059;52.548;13.408;2023-02-01T01:11:40;4.70;99.90
2106;DHT22;1059;52.548;13.408;2023-02-01T01:14:08;4.70;99.90
2106;DHT22;1059;52.548;13.408;2023-02-01T01:16:35;4.70;99.90
2106;DHT22;1059;52.548;13.408;2023-02-01T01:19:02;4.60;99.90
2106;DHT22;1059;52.548;13.408;2023-02-01T01:21:30;4.60;99.90
2106;DHT22;1059;52.548;13.408;2023-02-01T01:23:57;4.60;99.90
2106;DHT22;1059;52.548;13.408;2023-02-01T01:26:27;4.60;99.90
2106;DHT22;1059;52.548;13.408;2023-02-01T01:28:55;4.60;99.90
2106;DHT22;1059;52.548;13.408;2023-02-01T01:31:23;4.60;99.90
2106;DHT22;1059;52.548;13.408;2023-02-01T01:33:51;4.60;99.90
2106;DHT22;1059;52.548;13.408;2023-02-01T01:36:19;4.60;99.90
2106;DHT22;1059;52.548;13.408;2023-02-01T01:38:46;4.60;99.90
2106;DHT22;1059;52.548;13.408;2023-02-01T01:41:17;4.60;99.90
2106;DHT22;1059;52.548;13.408;2023-02-01T01:43:52;4.60;99.90
2106;DHT22;1059;52.548;13.408;2023-02-01T01:46:22;4.60;99.90
2106;DHT22;1059;52.548;13.408;2023-02-01T01:48:52;4.60;99.90
2106;DHT22;1059;52.548;13.408;2023-02-01T01:51:23;4.60;99.90
2106;DHT22;1059;52.548;13.408;2023-02-01T01:53:56;4.60;99.90
2106;DHT22;1059;52.548;13.408;2023-02-01T01:56:24;4.70;99.90
2106;DHT22;1059;52.548;13.408;2023-02-01T01:58:53;4.60;99.90
2106;DHT22;1059;52.548;13.408;2023-02-01T02:01:21;4.70;99.90
2106;DHT22;1059;52.548;13.408;2023-02-01T02:03:48;4.70;99.90
2106;DHT22;1059;52.548;13.408;2023-02-01T02:06:24;4.70;99.90
2106;DHT22;1059;52.548;13.408;2023-02-01T02:08:52;4.80;99.90
2106;DHT22;1059;52.548;13.408;2023-02-01T02:11:19;4.80;99.90
2106;DHT22;1059;52.548;13.408;2023-02-01T02:13:50;4.80;99.90
2106;DHT22;1059;52.548;13.408;2023-02-01T02:16:40;4.80;99.90
2106;DHT22;1059;52.548;13.408;2023-02-01T02:19:32;4.80;99.90
2106;DHT22;1059;52.548;13.408;2023-02-01T02:22:20;4.90;99.90
2106;DHT22;1059;52.548;13.408;2023-02-01T02:25:21;4.90;99.90
2106;DHT22;1059;52.548;13.408;2023-02-01T02:28:00;4.90;99.90
2106;DHT22;1059;52.548;13.408;2023-02-01T02:31:04;4.90;99.90
2106;DHT22;1059;52.548;13.408;2023-02-01T02:33:48;4.90;99.90
2106;DHT22;1059;52.548;13.408;2023-02-01T02:36:26;4.90;99.90
2106;DHT22;1059;52.548;13.408;2023-02-01T02:39:05;4.90;99.90
2106;DHT22;1059;52.548;13.408;2023-02-01T02:41:40;4.90;99.90
2106;DHT22;1059;52.548;13.408;2023-02-01T02:44:31;4.90;99.90
2106;DHT22;1059;52.548;13.408;2023-02-01T02:47:22;4.90;99.90
2106;DHT22;1059;52.548;13.408;2023-02-01T02:49:59;4.90;99.90
2106;DHT22;1059;52.548;13.408;2023-02-01T02:52:53;4.90;99.90
2106;DHT22;1059;52.548;13.408;2023-02-01T02:55:40;4.90;99.90
2106;DHT22;1059;52.548;13.408;2023-02-01T02:58:08;4.90;99.90
2106;DHT22;1059;52.548;13.408;2023-02-01T03:00:55;4.90;99.90
2106;DHT22;1059;52.548;13.408;2023-02-01T03:03:40;4.90;99.90
2106;DHT22;1059;52.548;13.408;2023-02-01T03:06:26;4.90;99.90
2106;DHT22;1059;52.548;13.408;2023-02-01T03:08:55;5.00;99.90
2106;DHT22;1059;52.548;13.408;2023-02-01T03:11:24;5.00;99.90
2106;DHT22;1059;52.548;13.408;2023-02-01T03:14:14;5.00;99.90
2106;DHT22;1059;52.548;13.408;2023-02-01T03:16:45;4.90;99.90
2106;DHT22;1059;52.548;13.408;2023-02-01T03:19:18;5.00;99.90
2106;DHT22;1059;52.548;13.408;2023-02-01T03:21:49;4.90;99.90
2106;DHT22;1059;52.548;13.408;2023-02-01T03:24:21;5.00;99.90
2106;DHT22;1059;52.548;13.408;2023-02-01T03:27:02;5.00;99.90
2106;DHT22;1059;52.548;13.408;2023-02-01T03:29:35;5.00;99.90
2106;DHT22;1059;52.548;13.408;2023-02-01T03:32:03;5.00;99.90
2106;DHT22;1059;52.548;13.408;2023-02-01T03:34:30;4.90;99.90
2106;DHT22;1059;52.548;13.408;2023-02-01T03:37:01;4.90;99.90
2106;DHT22;1059;52.548;13.408;2023-02-01T03:39:32;5.00;99.90
2106;DHT22;1059;52.548;13.408;2023-02-01T03:42:04;5.00;99.90
2106;DHT22;1059;52.548;13.408;2023-02-01T03:44:34;5.00;99.90
2106;DHT22;1059;52.548;13.408;2023-02-01T03:47:04;5.00;99.90
2106;DHT22;1059;52.548;13.408;2023-02-01T03:49:35;5.00;99.90
2106;DHT22;1059;52.548;13.408;2023-02-01T03:52:06;5.00;99.90
2106;DHT22;1059;52.548;13.408;2023-02-01T03:54:35;5.00;99.90
2106;DHT22;1059;52.548;13.408;2023-02-01T03:57:06;5.00;99.90
2106;DHT22;1059;52.548;13.408;2023-02-01T03:59:37;5.00;99.90
2106;DHT22;1059;52.548;13.408;2023-02-01T04:02:04;5.10;99.90
2106;DHT22;1059;52.548;13.408;2023-02-01T04:04:32;5.00;99.90
2106;DHT22;1059;52.548;13.408;2023-02-01T04:06:59;5.10;99.90
2106;DHT22;1059;52.548;13.408;2023-02-01T04:09:28;5.10;99.90
2106;DHT22;1059;52.548;13.408;2023-02-01T04:11:54;5.10;99.90
2106;DHT22;1059;52.548;13.408;2023-02-01T04:14:21;5.10;99.90
2106;DHT22;1059;52.548;13.408;2023-02-01T04:16:48;5.10;99.90
2106;DHT22;1059;52.548;13.408;2023-02-01T04:19:15;5.10;99.90
2106;DHT22;1059;52.548;13.408;2023-02-01T04:21:42;5.10;99.90
2106;DHT22;1059;52.548;13.408;2023-02-01T04:24:09;5.20;99.90
2106;DHT22;1059;52.548;13.408;2023-02-01T04:26:37;5.20;99.90
2106;DHT22;1059;52.548;13.408;2023-02-01T04:29:04;5.20;99.90
2106;DHT22;1059;52.548;13.408;2023-02-01T04:31:31;5.20;99.90
2106;DHT22;1059;52.548;13.408;2023-02-01T04:33:57;5.30;99.90
2106;DHT22;1059;52.548;13.408;2023-02-01T04:36:24;5.30;99.90
2106;DHT22;1059;52.548;13.408;2023-02-01T04:38:52;5.30;99.90
2106;DHT22;1059;52.548;13.408;2023-02-01T04:41:19;5.30;99.90
2106;DHT22;1059;52.548;13.408;2023-02-01T04:43:48;5.40;99.90
2106;DHT22;1059;52.548;13.408;2023-02-01T04:46:15;5.40;99.90
2106;DHT22;1059;52.548;13.408;2023-02-01T04:48:42;5.40;99.90
2106;DHT22;1059;52.548;13.408;2023-02-01T04:51:09;5.40;99.90
2106;DHT22;1059;52.548;13.408;2023-02-01T04:53:36;5.50;99.90
2106;DHT22;1059;52.548;13.408;2023-02-01T04:56:04;5.50;99.90
2106;DHT22;1059;52.548;13.408;2023-02-01T04:58:31;5.50;99.90
2106;DHT22;1059;52.548;13.408;2023-02-01T05:01:02;5.50;99.90
2106;DHT22;1059;52.548;13.408;2023-02-01T05:03:29;5.50;99.90
2106;DHT22;1059;52.548;13.408;2023-02-01T05:05:56;5.60;99.90
2106;DHT22;1059;52.548;13.408;2023-02-01T05:08:23;5.60;99.90
2106;DHT22;1059;52.548;13.408;2023-02-01T05:10:51;5.60;99.90
2106;DHT22;1059;52.548;13.408;2023-02-01T05:13:18;5.60;99.90
2106;DHT22;1059;52.548;13.408;2023-02-01T05:16:04;5.60;99.90
2106;DHT22;1059;52.548;13.408;2023-02-01T05:18:31;5.60;99.90
2106;DHT22;1059;52.548;13.408;2023-02-01T05:20:58;5.70;99.90
2106;DHT22;1059;52.548;13.408;2023-02-01T05:23:24;5.70;99.90
2106;DHT22;1059;52.548;13.408;2023-02-01T05:25:51;5.70;99.90
2106;DHT22;1059;52.548;13.408;2023-02-01T05:28:18;5.70;99.90
2106;DHT22;1059;52.548;13.408;2023-02-01T05:30:45;5.70;99.90
2106;DHT22;1059;52.548;13.408;2023-02-01T05:33:13;5.70;99.90
2106;DHT22;1059;52.548;13.408;2023-02-01T05:35:40;5.70;99.90
2106;DHT22;1059;52.548;13.408;2023-02-01T05:38:07;5.70;99.90
2106;DHT22;1059;52.548;13.408;2023-02-01T05:40:34;5.70;99.90
2106;DHT22;1059;52.548;13.408;2023-02-01T05:43:00;5.70;99.90
2106;DHT22;1059;52.548;13.408;2023-02-01T05:45:27;5.70;99.90
2106;DHT22;1059;52.548;13.408;2023-02-01T05:47:54;5.70;99.90
2106;DHT22;1059;52.548;13.408;2023-02-01T05:50:22;5.70;99.90
2106;DHT22;1059;52.548;13.408;2023-02-01T05:52:49;5.70;99.90
2106;DHT22;1059;52.548;13.408;2023-02-01T05:55:16;5.80;99.90
2106;DHT22;1059;52.548;13.408;2023-02-01T05:57:43;5.80;99.90
2106;DHT22;1059;52.548;13.408;2023-02-01T06:00:11;5.80;99.90
2106;DHT22;1059;52.548;13.408;2023-02-01T06:02:38;5.70;99.90
2106;DHT22;1059;52.548;13.408;2023-02-01T06:05:05;5.70;99.90
2106;DHT22;1059;52.548;13.408;2023-02-01T06:07:34;5.70;99.90
2106;DHT22;1059;52.548;13.408;2023-02-01T06:10:01;5.80;99.90
2106;DHT22;1059;52.548;13.408;2023-02-01T06:12:27;5.70;99.90
2106;DHT22;1059;52.548;13.408;2023-02-01T06:14:54;5.70;99.90
2106;DHT22;1059;52.548;13.408;2023-02-01T06:17:21;5.70;99.90
2106;DHT22;1059;52.548;13.408;2023-02-01T06:19:48;5.70;99.90
2106;DHT22;1059;52.548;13.408;2023-02-01T06:22:15;5.60;99.90
2106;DHT22;1059;52.548;13.408;2023-02-01T06:24:43;5.60;99.90
2106;DHT22;1059;52.548;13.408;2023-02-01T06:27:10;5.50;99.90
2106;DHT22;1059;52.548;13.408;2023-02-01T06:29:37;5.40;99.90
2106;DHT22;1059;52.548;13.408;2023-02-01T06:32:04;5.30;99.90
2106;DHT22;1059;52.548;13.408;2023-02-01T06:34:31;5.20;99.90
2106;DHT22;1059;52.548;13.408;2023-02-01T06:36:58;5.20;99.90
2106;DHT22;1059;52.548;13.408;2023-02-01T06:39:25;5.10;99.90
2106;DHT22;1059;52.548;13.408;2023-02-01T06:41:54;5.10;99.90
2106;DHT22;1059;52.548;13.408;2023-02-01T06:44:21;5.00;99.90
2106;DHT22;1059;52.548;13.408;2023-02-01T06:46:47;5.00;99.90
2106;DHT22;1059;52.548;13.408;2023-02-01T06:49:14;5.00;99.90
2106;DHT22;1059;52.548;13.408;2023-02-01T06:51:41;4.90;99.90
2106;DHT22;1059;52.548;13.408;2023-02-01T06:54:08;4.90;99.90
2106;DHT22;1059;52.548;13.408;2023-02-01T06:56:35;4.90;99.90
2106;DHT22;1059;52.548;13.408;2023-02-01T06:59:05;4.90;99.90
2106;DHT22;1059;52.548;13.408;2023-02-01T07:01:32;5.00;99.90
2106;DHT22;1059;52.548;13.408;2023-02-01T07:03:59;4.90;99.90
2106;DHT22;1059;52.548;13.408;2023-02-01T07:06:26;5.00;99.90
2106;DHT22;1059;52.548;13.408;2023-02-01T07:08:52;5.00;99.90
2106;DHT22;1059;52.548;13.408;2023-02-01T07:11:21;5.00;99.90
2106;DHT22;1059;52.548;13.408;2023-02-01T07:13:48;5.10;99.90
2106;DHT22;1059;52.548;13.408;2023-02-01T07:16:18;5.20;99.90
2106;DHT22;1059;52.548;13.408;2023-02-01T07:18:46;5.20;99.90
2106;DHT22;1059;52.548;13.408;2023-02-01T07:21:13;5.20;99.90
2106;DHT22;1059;52.548;13.408;2023-02-01T07:23:40;5.20;99.90
2106;DHT22;1059;52.548;13.408;2023-02-01T07:26:09;5.10;99.90
2106;DHT22;1059;52.548;13.408;2023-02-01T07:28:36;5.00;99.90
2106;DHT22;1059;52.548;13.408;2023-02-01T07:31:04;5.00;99.90
2106;DHT22;1059;52.548;13.408;2023-02-01T07:33:32;4.90;99.90
2106;DHT22;1059;52.548;13.408;2023-02-01T07:36:01;4.90;99.90
2106;DHT22;1059;52.548;13.408;2023-02-01T07:38:29;4.80;99.90
2106;DHT22;1059;52.548;13.408;2023-02-01T07:40:59;4.80;99.90
2106;DHT22;1059;52.548;13.408;2023-02-01T07:43:26;4.80;99.90
2106;DHT22;1059;52.548;13.408;2023-02-01T07:45:54;4.90;99.90
2106;DHT22;1059;52.548;13.408;2023-02-01T07:48:21;4.80;99.90
2106;DHT22;1059;52.548;13.408;2023-02-01T07:50:57;4.80;99.90
2106;DHT22;1059;52.548;13.408;2023-02-01T07:53:24;4.80;99.90
2106;DHT22;1059;52.548;13.408;2023-02-01T07:55:51;4.80;99.90
2106;DHT22;1059;52.548;13.408;2023-02-01T07:58:18;4.70;99.90
2106;DHT22;1059;52.548;13.408;2023-02-01T08:00:45;4.60;99.90
2106;DHT22;1059;52.548;13.408;2023-02-01T08:03:29;4.50;99.90
2106;DHT22;1059;52.548;13.408;2023-02-01T08:05:57;4.40;99.90
2106;DHT22;1059;52.548;13.408;2023-02-01T08:08:24;4.30;99.90
2106;DHT22;1059;52.548;13.408;2023-02-01T08:10:56;4.10;99.90
2106;DHT22;1059;52.548;13.408;2023-02-01T08:13:23;4.10;99.90
2106;DHT22;1059;52.548;13.408;2023-02-01T08:15:50;4.00;99.90
2106;DHT22;1059;52.548;13.408;2023-02-01T08:18:16;4.00;99.90
2106;DHT22;1059;52.548;13.408;2023-02-01T08:20:44;4.00;99.90
2106;DHT22;1059;52.548;13.408;2023-02-01T08:23:12;4.00;99.90
2106;DHT22;1059;52.548;13.408;2023-02-01T08:25:39;3.90;99.90
2106;DHT22;1059;52.548;13.408;2023-02-01T08:28:06;3.90;99.90
2106;DHT22;1059;52.548;13.408;2023-02-01T08:30:33;3.90;99.90
2106;DHT22;1059;52.548;13.408;2023-02-01T08:33:00;3.90;99.90
2106;DHT22;1059;52.548;13.408;2023-02-01T08:35:27;3.90;99.90
2106;DHT22;1059;52.548;13.408;2023-02-01T08:37:54;3.90;99.90
2106;DHT22;1059;52.548;13.408;2023-02-01T08:40:22;3.90;99.90
2106;DHT22;1059;52.548;13.408;2023-02-01T08:42:49;3.90;99.90
2106;DHT22;1059;52.548;13.408;2023-02-01T08:45:20;3.90;99.90
2106;DHT22;1059;52.548;13.408;2023-02-01T08:47:49;3.90;99.90
2106;DHT22;1059;52.548;13.408;2023-02-01T08:50:16;3.90;99.90
2106;DHT22;1059;52.548;13.408;2023-02-01T08:52:44;3.90;99.90
2106;DHT22;1059;52.548;13.408;2023-02-01T08:55:11;3.80;99.90
2106;DHT22;1059;52.548;13.408;2023-02-01T08:57:39;3.80;99.90
2106;DHT22;1059;52.548;13.408;2023-02-01T09:00:08;3.80;99.90
2106;DHT22;1059;52.548;13.408;2023-02-01T09:02:35;3.80;99.90
2106;DHT22;1059;52.548;13.408;2023-02-01T09:05:02;3.80;99.90
2106;DHT22;1059;52.548;13.408;2023-02-01T09:07:30;3.80;99.90
2106;DHT22;1059;52.548;13.408;2023-02-01T09:09:56;3.80;99.90
2106;DHT22;1059;52.548;13.408;2023-02-01T09:12:26;3.90;99.90
2106;DHT22;1059;52.548;13.408;2023-02-01T09:14:55;3.90;99.90
2106;DHT22;1059;52.548;13.408;2023-02-01T09:17:22;3.90;99.90
2106;DHT22;1059;52.548;13.408;2023-02-01T09:19:49;3.90;99.90
2106;DHT22;1059;52.548;13.408;2023-02-01T09:22:16;4.00;99.90
2106;DHT22;1059;52.548;13.408;2023-02-01T09:24:43;4.00;99.90
2106;DHT22;1059;52.548;13.408;2023-02-01T09:27:10;4.10;99.90
2106;DHT22;1059;52.548;13.408;2023-02-01T09:29:37;4.10;99.90
2106;DHT22;1059;52.548;13.408;2023-02-01T09:32:05;4.10;99.90
2106;DHT22;1059;52.548;13.408;2023-02-01T09:34:33;4.10;99.90
2106;DHT22;1059;52.548;13.408;2023-02-01T09:37:00;4.20;99.90
2106;DHT22;1059;52.548;13.408;2023-02-01T09:39:27;4.20;99.90
2106;DHT22;1059;52.548;13.408;2023-02-01T09:42:02;4.30;99.90
2106;DHT22;1059;52.548;13.408;2023-02-01T09:47:23;4.30;99.90
2106;DHT22;1059;52.548;13.408;2023-02-01T09:49:54;4.30;99.90
2106;DHT22;1059;52.548;13.408;2023-02-01T09:52:27;4.30;99.90
2106;DHT22;1059;52.548;13.408;2023-02-01T09:54:59;4.40;99.90
2106;DHT22;1059;52.548;13.408;2023-02-01T09:57:40;4.40;99.90
2106;DHT22;1059;52.548;13.408;2023-02-01T10:00:16;4.30;99.90
2106;DHT22;1059;52.548;13.408;2023-02-01T10:02:45;4.40;99.90
2106;DHT22;1059;52.548;13.408;2023-02-01T10:05:14;4.40;99.90
2106;DHT22;1059;52.548;13.408;2023-02-01T10:07:50;4.40;99.90
2106;DHT22;1059;52.548;13.408;2023-02-01T10:10:28;4.40;99.90
2106;DHT22;1059;52.548;13.408;2023-02-01T10:13:15;4.40;99.90
2106;DHT22;1059;52.548;13.408;2023-02-01T10:15:52;4.30;99.90
2106;DHT22;1059;52.548;13.408;2023-02-01T10:18:51;4.20;99.90
2106;DHT22;1059;52.548;13.408;2023-02-01T10:21:28;4.20;99.90
2106;DHT22;1059;52.548;13.408;2023-02-01T10:24:11;4.20;99.90
2106;DHT22;1059;52.548;13.408;2023-02-01T10:26:45;4.10;99.90
2106;DHT22;1059;52.548;13.408;2023-02-01T10:29:16;4.20;99.90
2106;DHT22;1059;52.548;13.408;2023-02-01T10:31:45;4.20;99.90
2106;DHT22;1059;52.548;13.408;2023-02-01T10:34:18;4.20;99.90
2106;DHT22;1059;52.548;13.408;2023-02-01T10:36:53;4.30;99.90
2106;DHT22;1059;52.548;13.408;2023-02-01T10:39:20;4.30;99.90
2106;DHT22;1059;52.548;13.408;2023-02-01T10:41:48;4.40;99.90
2106;DHT22;1059;52.548;13.408;2023-02-01T10:44:16;4.40;99.90
2106;DHT22;1059;52.548;13.408;2023-02-01T10:46:45;4.40;99.90
2106;DHT22;1059;52.548;13.408;2023-02-01T10:49:19;4.50;99.90
2106;DHT22;1059;52.548;13.408;2023-02-01T10:51:52;4.50;99.90
2106;DHT22;1059;52.548;13.408;2023-02-01T10:54:22;4.40;99.90
2106;DHT22;1059;52.548;13.408;2023-02-01T10:56:58;4.30;99.90
2106;DHT22;1059;52.548;13.408;2023-02-01T10:59:28;4.30;99.90
2106;DHT22;1059;52.548;13.408;2023-02-01T11:01:59;4.20;99.90
2106;DHT22;1059;52.548;13.408;2023-02-01T11:04:32;4.20;99.90
2106;DHT22;1059;52.548;13.408;2023-02-01T11:07:06;4.20;99.90
2106;DHT22;1059;52.548;13.408;2023-02-01T11:09:35;4.20;99.90
2106;DHT22;1059;52.548;13.408;2023-02-01T11:12:10;4.30;99.90
2106;DHT22;1059;52.548;13.408;2023-02-01T11:14:47;4.30;99.90
2106;DHT22;1059;52.548;13.408;2023-02-01T11:17:24;4.40;99.90
2106;DHT22;1059;52.548;13.408;2023-02-01T11:20:02;4.40;99.90
2106;DHT22;1059;52.548;13.408;2023-02-01T11:22:30;4.50;99.90
2106;DHT22;1059;52.548;13.408;2023-02-01T11:24:58;4.60;99.90
2106;DHT22;1059;52.548;13.408;2023-02-01T11:27:25;4.60;99.90
2106;DHT22;1059;52.548;13.408;2023-02-01T11:29:56;4.70;99.90
2106;DHT22;1059;52.548;13.408;2023-02-01T11:32:24;4.80;99.90
2106;DHT22;1059;52.548;13.408;2023-02-01T11:34:54;4.90;99.90
2106;DHT22;1059;52.548;13.408;2023-02-01T11:37:26;5.10;99.90
2106;DHT22;1059;52.548;13.408;2023-02-01T11:39:55;5.10;99.90
2106;DHT22;1059;52.548;13.408;2023-02-01T11:42:23;5.20;99.90
2106;DHT22;1059;52.548;13.408;2023-02-01T11:44:50;5.30;99.90
2106;DHT22;1059;52.548;13.408;2023-02-01T11:47:23;5.30;99.90
2106;DHT22;1059;52.548;13.408;2023-02-01T11:49:52;5.30;99.90
2106;DHT22;1059;52.548;13.408;2023-02-01T11:52:35;5.40;99.90
2106;DHT22;1059;52.548;13.408;2023-02-01T11:55:37;5.40;99.90
2106;DHT22;1059;52.548;13.408;2023-02-01T11:58:26;5.50;99.90
2106;DHT22;1059;52.548;13.408;2023-02-01T12:01:07;5.60;99.90
2106;DHT22;1059;52.548;13.408;2023-02-01T12:04:16;5.70;99.90
2106;DHT22;1059;52.548;13.408;2023-02-01T12:06:51;5.80;99.90
2106;DHT22;1059;52.548;13.408;2023-02-01T12:09:40;5.90;99.90
2106;DHT22;1059;52.548;13.408;2023-02-01T12:12:17;6.00;99.90
2106;DHT22;1059;52.548;13.408;2023-02-01T12:15:01;6.20;99.90
2106;DHT22;1059;52.548;13.408;2023-02-01T12:17:51;6.30;99.90
2106;DHT22;1059;52.548;13.408;2023-02-01T12:20:41;6.30;99.90
2106;DHT22;1059;52.548;13.408;2023-02-01T12:23:23;6.30;99.90
2106;DHT22;1059;52.548;13.408;2023-02-01T12:26:03;6.20;99.90
2106;DHT22;1059;52.548;13.408;2023-02-01T12:28:48;6.20;99.90
2106;DHT22;1059;52.548;13.408;2023-02-01T12:31:31;6.20;99.90
2106;DHT22;1059;52.548;13.408;2023-02-01T12:34:12;6.20;99.90
2106;DHT22;1059;52.548;13.408;2023-02-01T12:36:47;6.20;99.90
2106;DHT22;1059;52.548;13.408;2023-02-01T12:39:23;6.20;99.90
2106;DHT22;1059;52.548;13.408;2023-02-01T12:41:57;6.20;99.90
2106;DHT22;1059;52.548;13.408;2023-02-01T12:44:39;6.20;99.90
2106;DHT22;1059;52.548;13.408;2023-02-01T12:47:16;6.10;99.90
2106;DHT22;1059;52.548;13.408;2023-02-01T12:49:52;6.00;99.90
2106;DHT22;1059;52.548;13.408;2023-02-01T12:52:26;6.10;99.90
2106;DHT22;1059;52.548;13.408;2023-02-01T12:54:59;6.10;99.90
2106;DHT22;1059;52.548;13.408;2023-02-01T12:57:31;6.10;99.90
2106;DHT22;1059;52.548;13.408;2023-02-01T13:00:04;6.20;99.90
2106;DHT22;1059;52.548;13.408;2023-02-01T13:02:39;6.20;99.90
2106;DHT22;1059;52.548;13.408;2023-02-01T13:05:15;6.30;99.90
2106;DHT22;1059;52.548;13.408;2023-02-01T13:07:46;6.40;99.90
2106;DHT22;1059;52.548;13.408;2023-02-01T13:10:17;6.40;99.90
2106;DHT22;1059;52.548;13.408;2023-02-01T13:12:51;6.50;99.90
2106;DHT22;1059;52.548;13.408;2023-02-01T13:15:23;6.60;99.90
2106;DHT22;1059;52.548;13.408;2023-02-01T13:17:53;6.60;99.90
2106;DHT22;1059;52.548;13.408;2023-02-01T13:20:23;6.60;99.90
2106;DHT22;1059;52.548;13.408;2023-02-01T13:22:57;6.40;99.90
2106;DHT22;1059;52.548;13.408;2023-02-01T13:25:34;6.20;99.90
2106;DHT22;1059;52.548;13.408;2023-02-01T13:28:05;6.10;99.90
2106;DHT22;1059;52.548;13.408;2023-02-01T13:30:48;6.00;99.90
2106;DHT22;1059;52.548;13.408;2023-02-01T13:33:40;5.90;99.90
2106;DHT22;1059;52.548;13.408;2023-02-01T13:36:36;6.00;99.90
2106;DHT22;1059;52.548;13.408;2023-02-01T13:39:25;6.20;99.90
2106;DHT22;1059;52.548;13.408;2023-02-01T13:41:57;6.30;99.90
2106;DHT22;1059;52.548;13.408;2023-02-01T13:44:30;6.40;99.90
2106;DHT22;1059;52.548;13.408;2023-02-01T13:47:02;6.50;99.90
2106;DHT22;1059;52.548;13.408;2023-02-01T13:49:38;6.60;99.90
2106;DHT22;1059;52.548;13.408;2023-02-01T13:52:17;6.60;99.90
2106;DHT22;1059;52.548;13.408;2023-02-01T13:54:47;6.70;99.90
2106;DHT22;1059;52.548;13.408;2023-02-01T13:57:34;6.70;99.90
2106;DHT22;1059;52.548;13.408;2023-02-01T14:00:22;6.70;99.90
2106;DHT22;1059;52.548;13.408;2023-02-01T14:05:58;6.80;99.90
2106;DHT22;1059;52.548;13.408;2023-02-01T14:08:40;6.80;99.90
2106;DHT22;1059;52.548;13.408;2023-02-01T14:11:31;6.80;99.90
2106;DHT22;1059;52.548;13.408;2023-02-01T14:23:23;6.20;99.90
2106;DHT22;1059;52.548;13.408;2023-02-01T14:29:02;5.70;99.90
2106;DHT22;1059;52.548;13.408;2023-02-01T14:31:47;5.70;99.90
2106;DHT22;1059;52.548;13.408;2023-02-01T14:34:19;5.60;99.90
2106;DHT22;1059;52.548;13.408;2023-02-01T14:36:50;5.60;99.90
2106;DHT22;1059;52.548;13.408;2023-02-01T14:39:29;5.70;99.90
2106;DHT22;1059;52.548;13.408;2023-02-01T14:42:00;5.70;99.90
2106;DHT22;1059;52.548;13.408;2023-02-01T14:44:31;5.80;99.90
2106;DHT22;1059;52.548;13.408;2023-02-01T14:52:51;6.00;99.90
2106;DHT22;1059;52.548;13.408;2023-02-01T14:55:33;6.00;99.90
2106;DHT22;1059;52.548;13.408;2023-02-01T14:58:06;6.00;99.90
2106;DHT22;1059;52.548;13.408;2023-02-01T15:00:37;6.00;99.90
2106;DHT22;1059;52.548;13.408;2023-02-01T15:03:25;6.00;99.90
2106;DHT22;1059;52.548;13.408;2023-02-01T15:05:56;6.00;99.90
2106;DHT22;1059;52.548;13.408;2023-02-01T15:08:26;6.00;99.90
2106;DHT22;1059;52.548;13.408;2023-02-01T15:10:57;6.00;99.90
2106;DHT22;1059;52.548;13.408;2023-02-01T15:13:26;6.00;99.90
2106;DHT22;1059;52.548;13.408;2023-02-01T15:16:04;6.00;99.90
2106;DHT22;1059;52.548;13.408;2023-02-01T15:18:32;5.80;99.90
2106;DHT22;1059;52.548;13.408;2023-02-01T15:20:59;5.60;99.90
2106;DHT22;1059;52.548;13.408;2023-02-01T15:23:27;5.50;99.90
2106;DHT22;1059;52.548;13.408;2023-02-01T15:25:56;5.30;99.90
2106;DHT22;1059;52.548;13.408;2023-02-01T15:28:23;5.10;99.90
2106;DHT22;1059;52.548;13.408;2023-02-01T15:30:57;4.90;99.90
2106;DHT22;1059;52.548;13.408;2023-02-01T15:33:25;4.80;99.90
2106;DHT22;1059;52.548;13.408;2023-02-01T15:35:52;4.70;99.90
2106;DHT22;1059;52.548;13.408;2023-02-01T15:38:36;4.60;99.90
2106;DHT22;1059;52.548;13.408;2023-02-01T15:41:10;4.50;99.90
2106;DHT22;1059;52.548;13.408;2023-02-01T15:43:41;4.40;99.90
2106;DHT22;1059;52.548;13.408;2023-02-01T15:46:11;4.30;99.90
2106;DHT22;1059;52.548;13.408;2023-02-01T15:48:44;4.30;99.90
2106;DHT22;1059;52.548;13.408;2023-02-01T15:51:14;4.20;99.90
2106;DHT22;1059;52.548;13.408;2023-02-01T15:53:48;4.20;99.90
2106;DHT22;1059;52.548;13.408;2023-02-01T15:56:22;4.00;99.90
2106;DHT22;1059;52.548;13.408;2023-02-01T15:58:52;3.90;99.90
2106;DHT22;1059;52.548;13.408;2023-02-01T16:01:20;3.80;99.90
2106;DHT22;1059;52.548;13.408;2023-02-01T16:03:47;3.70;99.90
2106;DHT22;1059;52.548;13.408;2023-02-01T16:06:27;3.50;99.90
2106;DHT22;1059;52.548;13.408;2023-02-01T16:08:55;3.20;99.90
2106;DHT22;1059;52.548;13.408;2023-02-01T16:11:29;3.00;99.90
2106;DHT22;1059;52.548;13.408;2023-02-01T16:13:56;2.80;99.90
2106;DHT22;1059;52.548;13.408;2023-02-01T16:16:24;2.80;99.90
2106;DHT22;1059;52.548;13.408;2023-02-01T16:18:51;2.70;99.90
2106;DHT22;1059;52.548;13.408;2023-02-01T16:21:17;2.70;99.90
2106;DHT22;1059;52.548;13.408;2023-02-01T16:23:48;2.60;99.90
2106;DHT22;1059;52.548;13.408;2023-02-01T16:26:16;2.60;99.90
2106;DHT22;1059;52.548;13.408;2023-02-01T16:28:44;2.60;99.90
2106;DHT22;1059;52.548;13.408;2023-02-01T16:31:12;2.60;99.90
2106;DHT22;1059;52.548;13.408;2023-02-01T16:33:46;2.60;99.90
2106;DHT22;1059;52.548;13.408;2023-02-01T16:36:14;2.60;99.90
2106;DHT22;1059;52.548;13.408;2023-02-01T16:38:41;2.60;99.90
2106;DHT22;1059;52.548;13.408;2023-02-01T16:41:12;2.60;99.90
2106;DHT22;1059;52.548;13.408;2023-02-01T16:43:39;2.70;99.90
2106;DHT22;1059;52.548;13.408;2023-02-01T16:46:13;2.70;99.90
2106;DHT22;1059;52.548;13.408;2023-02-01T16:48:42;2.70;99.90
2106;DHT22;1059;52.548;13.408;2023-02-01T16:51:12;2.80;99.90
2106;DHT22;1059;52.548;13.408;2023-02-01T16:53:41;2.80;99.90